createdAt,value
2018-08-08T00:00:27.586Z,989.61
2018-08-08T00:01:34.670Z,989.57
2018-08-08T00:02:40.767Z,989.56
2018-08-08T00:03:47.371Z,989.54
2018-08-08T00:04:53.994Z,989.56
2018-08-08T00:06:00.566Z,989.58
2018-08-08T00:07:07.273Z,989.62
2018-08-08T00:08:13.750Z,989.63
2018-08-08T00:09:20.352Z,989.60
2018-08-08T00:10:26.934Z,989.57
2018-08-08T00:11:33.535Z,989.59
2018-08-08T00:12:41.124Z,989.60
2018-08-08T00:13:46.723Z,989.62
2018-08-08T00:14:53.621Z,989.64
2018-08-08T00:15:59.898Z,989.66
2018-08-08T00:17:06.499Z,989.68
2018-08-08T00:18:14.083Z,989.64
2018-08-08T00:19:20.177Z,989.64
2018-08-08T00:20:26.270Z,989.62
2018-08-08T00:21:32.848Z,989.61
2018-08-08T00:22:39.433Z,989.64
2018-08-08T00:23:46.016Z,989.61
2018-08-08T00:24:52.608Z,989.67
2018-08-08T00:25:59.646Z,989.73
2018-08-08T00:27:05.778Z,989.77
2018-08-08T00:28:12.340Z,989.75
2018-08-08T00:29:18.916Z,989.74
2018-08-08T00:30:25.494Z,989.77
2018-08-08T00:31:32.564Z,989.78
2018-08-08T00:32:38.643Z,989.83
2018-08-08T00:33:45.228Z,989.88
2018-08-08T00:34:51.783Z,989.93
2018-08-08T00:35:58.364Z,990.05
2018-08-08T00:37:04.919Z,990.14
2018-08-08T00:38:11.488Z,990.14
2018-08-08T00:39:18.064Z,990.17
2018-08-08T00:40:24.631Z,990.23
2018-08-08T00:41:31.683Z,990.24
2018-08-08T00:42:38.248Z,990.28
2018-08-08T00:43:44.329Z,990.34
2018-08-08T00:44:50.875Z,990.37
2018-08-08T00:45:57.429Z,990.41
2018-08-08T00:47:04.481Z,990.50
2018-08-08T00:48:10.547Z,990.46
2018-08-08T00:49:17.093Z,990.47
2018-08-08T00:50:23.660Z,990.50
2018-08-08T00:51:30.216Z,990.57
2018-08-08T00:52:36.772Z,990.58
2018-08-08T00:53:43.333Z,990.59
2018-08-08T00:54:49.893Z,990.56
2018-08-08T00:55:56.452Z,990.58
2018-08-08T00:57:02.999Z,990.59
2018-08-08T00:58:10.072Z,990.53
2018-08-08T00:59:16.633Z,990.55
2018-08-08T01:00:22.685Z,990.58
2018-08-08T01:01:29.246Z,990.53
2018-08-08T01:02:35.801Z,990.52
2018-08-08T01:03:42.361Z,990.51
2018-08-08T01:04:49.419Z,990.54
2018-08-08T01:05:55.473Z,990.52
2018-08-08T01:07:02.026Z,990.52
2018-08-08T01:08:08.607Z,990.47
2018-08-08T01:09:15.124Z,990.40
2018-08-08T01:10:21.690Z,990.42
2018-08-08T01:11:28.242Z,990.33
2018-08-08T01:12:34.803Z,990.36
2018-08-08T01:13:41.836Z,990.38
2018-08-08T01:14:47.901Z,990.44
2018-08-08T01:15:54.452Z,990.44
2018-08-08T01:17:00.998Z,990.39
2018-08-08T01:18:07.558Z,990.34
2018-08-08T01:19:14.107Z,990.28
2018-08-08T01:20:21.156Z,990.32
2018-08-08T01:21:27.195Z,990.36
2018-08-08T01:22:33.754Z,990.36
2018-08-08T01:23:40.293Z,990.36
2018-08-08T01:24:46.861Z,990.35
2018-08-08T01:25:53.407Z,990.39
2018-08-08T01:27:01.895Z,990.35
2018-08-08T01:28:06.507Z,990.34
2018-08-08T01:29:13.049Z,990.42
2018-08-08T01:30:19.599Z,990.42
2018-08-08T01:31:26.136Z,990.44
2018-08-08T01:32:32.688Z,990.43
2018-08-08T01:33:39.732Z,990.44
2018-08-08T01:34:46.271Z,990.44
2018-08-08T01:35:52.325Z,990.42
2018-08-08T01:36:59.361Z,990.43
2018-08-08T01:38:08.343Z,990.42
2018-08-08T01:39:12.434Z,990.44
2018-08-08T01:40:18.489Z,990.40
2018-08-08T01:41:25.016Z,990.38
2018-08-08T01:42:31.560Z,990.40
2018-08-08T01:43:38.092Z,990.39
2018-08-08T01:44:45.128Z,990.37
2018-08-08T01:45:51.345Z,990.36
2018-08-08T01:46:57.710Z,990.44
2018-08-08T01:48:04.234Z,990.42
2018-08-08T01:49:10.772Z,990.37
2018-08-08T01:50:17.313Z,990.40
2018-08-08T01:51:23.850Z,990.42
2018-08-08T01:52:30.376Z,990.39
2018-08-08T01:53:36.911Z,990.38
2018-08-08T01:54:43.928Z,990.39
2018-08-08T01:55:49.968Z,990.35
2018-08-08T01:56:56.492Z,990.32
2018-08-08T01:58:03.520Z,990.31
2018-08-08T01:59:09.547Z,990.31
2018-08-08T02:00:16.077Z,990.36
2018-08-08T02:01:23.087Z,990.30
2018-08-08T02:02:29.605Z,990.36
2018-08-08T02:03:36.131Z,990.39
2018-08-08T02:04:42.157Z,990.30
2018-08-08T02:05:48.697Z,990.30
2018-08-08T02:06:55.290Z,990.25
2018-08-08T02:08:02.246Z,990.30
2018-08-08T02:09:08.236Z,990.30
2018-08-08T02:10:15.284Z,990.29
2018-08-08T02:11:21.292Z,990.34
2018-08-08T02:12:27.786Z,990.40
2018-08-08T02:13:34.293Z,990.42
2018-08-08T02:14:40.812Z,990.46
2018-08-08T02:15:47.825Z,990.48
2018-08-08T02:16:54.849Z,990.52
2018-08-08T02:18:00.366Z,990.54
2018-08-08T02:19:06.886Z,990.57
2018-08-08T02:20:13.391Z,990.55
2018-08-08T02:21:19.911Z,990.49
2018-08-08T02:22:26.433Z,990.50
2018-08-08T02:23:32.942Z,990.49
2018-08-08T02:24:39.441Z,990.51
2018-08-08T02:25:45.959Z,990.49
2018-08-08T02:26:52.471Z,990.54
2018-08-08T02:27:59.461Z,990.55
2018-08-08T02:29:05.487Z,990.55
2018-08-08T02:30:11.999Z,990.54
2018-08-08T02:31:20.007Z,990.52
2018-08-08T02:32:25.016Z,990.54
2018-08-08T02:33:32.042Z,990.53
2018-08-08T02:34:38.042Z,990.54
2018-08-08T02:35:44.549Z,990.56
2018-08-08T02:36:51.062Z,990.48
2018-08-08T02:37:57.571Z,990.51
2018-08-08T02:39:04.072Z,990.47
2018-08-08T02:40:10.577Z,990.44
2018-08-08T02:41:17.097Z,990.46
2018-08-08T02:42:24.107Z,990.47
2018-08-08T02:43:30.097Z,990.43
2018-08-08T02:44:37.085Z,990.42
2018-08-08T02:45:43.602Z,990.37
2018-08-08T02:46:49.611Z,990.35
2018-08-08T02:47:56.616Z,990.34
2018-08-08T02:49:02.633Z,990.37
2018-08-08T02:50:09.628Z,990.34
2018-08-08T02:51:15.639Z,990.33
2018-08-08T02:52:22.136Z,990.35
2018-08-08T02:53:28.655Z,990.34
2018-08-08T02:54:35.148Z,990.35
2018-08-08T02:55:41.665Z,990.34
2018-08-08T02:56:48.169Z,990.33
2018-08-08T02:57:54.675Z,990.35
2018-08-08T02:59:01.286Z,990.30
2018-08-08T03:00:07.693Z,990.32
2018-08-08T03:01:14.390Z,990.29
2018-08-08T03:02:20.710Z,990.30
2018-08-08T03:03:27.682Z,990.31
2018-08-08T03:04:33.727Z,990.36
2018-08-08T03:05:40.742Z,990.39
2018-08-08T03:06:46.744Z,990.42
2018-08-08T03:07:53.735Z,990.43
2018-08-08T03:08:59.765Z,990.43
2018-08-08T03:10:06.260Z,990.46
2018-08-08T03:11:12.784Z,990.45
2018-08-08T03:12:19.775Z,990.44
2018-08-08T03:13:26.284Z,990.48
2018-08-08T03:14:32.288Z,990.55
2018-08-08T03:15:38.809Z,990.73
2018-08-08T03:16:45.819Z,990.91
2018-08-08T03:17:51.829Z,991.11
2018-08-08T03:18:58.335Z,991.36
2018-08-08T03:20:04.856Z,991.54
2018-08-08T03:21:11.362Z,991.59
2018-08-08T03:22:17.878Z,991.51
2018-08-08T03:23:24.880Z,991.41
2018-08-08T03:24:30.897Z,991.27
2018-08-08T03:25:37.418Z,991.19
2018-08-08T03:26:43.952Z,991.06
2018-08-08T03:27:50.473Z,991.06
2018-08-08T03:28:57.491Z,991.10
2018-08-08T03:30:04.008Z,991.22
2018-08-08T03:31:10.054Z,991.34
2018-08-08T03:32:16.586Z,991.43
2018-08-08T03:33:23.113Z,991.39
2018-08-08T03:34:29.636Z,991.24
2018-08-08T03:35:36.176Z,991.22
2018-08-08T03:36:42.713Z,991.20
2018-08-08T03:37:49.707Z,991.34
2018-08-08T03:38:55.778Z,991.47
2018-08-08T03:40:02.323Z,991.27
2018-08-08T03:41:08.877Z,991.07
2018-08-08T03:42:15.421Z,991.16
2018-08-08T03:43:22.158Z,991.33
2018-08-08T03:44:28.514Z,991.41
2018-08-08T03:45:35.063Z,991.42
2018-08-08T03:46:41.619Z,991.41
2018-08-08T03:47:48.271Z,991.46
2018-08-08T03:48:54.735Z,991.59
2018-08-08T03:50:01.279Z,991.60
2018-08-08T03:51:07.840Z,991.51
2018-08-08T03:52:14.400Z,991.47
2018-08-08T03:53:21.542Z,991.47
2018-08-08T03:54:27.514Z,991.50
2018-08-08T03:55:34.075Z,991.52
2018-08-08T03:56:40.645Z,991.40
2018-08-08T03:57:47.261Z,991.35
2018-08-08T03:58:53.796Z,991.40
2018-08-08T04:00:00.343Z,991.45
2018-08-08T04:01:06.900Z,991.52
2018-08-08T04:02:13.964Z,991.53
2018-08-08T04:03:20.037Z,991.57
2018-08-08T04:04:26.595Z,991.65
2018-08-08T04:05:33.206Z,991.66
2018-08-08T04:06:39.777Z,991.66
2018-08-08T04:07:46.314Z,991.65
2018-08-08T04:08:53.378Z,991.68
2018-08-08T04:09:59.444Z,991.80
2018-08-08T04:11:06.010Z,991.88
2018-08-08T04:12:12.581Z,991.92
2018-08-08T04:13:19.136Z,992.02
2018-08-08T04:14:25.695Z,992.09
2018-08-08T04:15:32.257Z,992.14
2018-08-08T04:16:39.310Z,992.08
2018-08-08T04:17:45.417Z,991.95
2018-08-08T04:18:51.919Z,991.99
2018-08-08T04:19:58.479Z,991.89
2018-08-08T04:21:05.028Z,991.72
2018-08-08T04:22:11.580Z,991.65
2018-08-08T04:23:18.116Z,991.55
2018-08-08T04:24:24.683Z,991.59
2018-08-08T04:25:31.225Z,991.88
2018-08-08T04:26:38.267Z,992.06
2018-08-08T04:27:44.303Z,992.10
2018-08-08T04:28:50.829Z,992.08
2018-08-08T04:29:57.376Z,992.00
2018-08-08T04:31:04.468Z,991.91
2018-08-08T04:32:10.460Z,991.93
2018-08-08T04:33:16.991Z,991.98
2018-08-08T04:34:23.507Z,992.27
2018-08-08T04:35:31.047Z,992.60
2018-08-08T04:36:36.596Z,992.71
2018-08-08T04:37:43.101Z,992.85
2018-08-08T04:38:49.643Z,992.95
2018-08-08T04:39:56.268Z,992.99
2018-08-08T04:41:03.180Z,992.91
2018-08-08T04:42:09.246Z,993.03
2018-08-08T04:43:15.760Z,993.04
2018-08-08T04:44:22.283Z,993.08
2018-08-08T04:45:28.801Z,993.11
2018-08-08T04:46:35.344Z,993.19
2018-08-08T04:47:42.820Z,993.16
2018-08-08T04:48:48.397Z,993.29
2018-08-08T04:49:54.929Z,993.41
2018-08-08T04:51:01.486Z,993.43
2018-08-08T04:52:08.002Z,993.45
2018-08-08T04:53:15.054Z,993.52
2018-08-08T04:54:21.553Z,993.54
2018-08-08T04:55:27.665Z,993.57
2018-08-08T04:56:34.145Z,993.55
2018-08-08T04:57:40.671Z,993.51
2018-08-08T04:58:47.706Z,993.51
2018-08-08T04:59:53.743Z,993.51
2018-08-08T05:01:00.779Z,993.56
2018-08-08T05:02:06.834Z,993.58
2018-08-08T05:03:13.375Z,993.51
2018-08-08T05:04:19.910Z,993.54
2018-08-08T05:05:26.450Z,993.52
2018-08-08T05:06:33.008Z,993.50
2018-08-08T05:07:39.542Z,993.52
2018-08-08T05:08:46.078Z,993.58
2018-08-08T05:09:52.629Z,993.55
2018-08-08T05:10:59.167Z,993.58
2018-08-08T05:12:05.708Z,993.68
2018-08-08T05:13:12.761Z,993.64
2018-08-08T05:14:18.803Z,993.68
2018-08-08T05:15:25.331Z,993.63
2018-08-08T05:16:31.887Z,993.58
2018-08-08T05:17:38.434Z,993.52
2018-08-08T05:18:44.984Z,993.45
2018-08-08T05:19:51.525Z,993.43
2018-08-08T05:20:58.084Z,993.39
2018-08-08T05:22:04.640Z,993.34
2018-08-08T05:23:11.204Z,993.34
2018-08-08T05:24:17.750Z,993.35
2018-08-08T05:25:24.316Z,993.34
2018-08-08T05:26:31.073Z,993.30
2018-08-08T05:27:37.479Z,993.38
2018-08-08T05:28:44.021Z,993.37
2018-08-08T05:29:50.594Z,993.34
2018-08-08T05:30:57.482Z,993.31
2018-08-08T05:32:03.748Z,993.28
2018-08-08T05:33:10.815Z,993.35
2018-08-08T05:34:16.916Z,993.34
2018-08-08T05:35:23.482Z,993.29
2018-08-08T05:36:30.569Z,993.35
2018-08-08T05:37:36.668Z,993.31
2018-08-08T05:38:43.250Z,993.30
2018-08-08T05:39:49.842Z,993.24
2018-08-08T05:40:56.436Z,993.24
2018-08-08T05:42:03.026Z,993.30
2018-08-08T05:43:09.641Z,993.37
2018-08-08T05:44:16.228Z,993.45
2018-08-08T05:45:22.838Z,993.55
2018-08-08T05:46:29.435Z,993.62
2018-08-08T05:47:36.041Z,993.66
2018-08-08T05:48:42.665Z,993.74
2018-08-08T05:49:49.754Z,993.78
2018-08-08T05:50:55.863Z,993.81
2018-08-08T05:52:02.484Z,993.81
2018-08-08T05:53:09.095Z,993.80
2018-08-08T05:54:16.189Z,993.78
2018-08-08T05:55:22.334Z,993.84
2018-08-08T05:56:28.949Z,993.84
2018-08-08T05:57:35.566Z,993.83
2018-08-08T05:58:42.280Z,993.82
2018-08-08T05:59:49.321Z,993.81
2018-08-08T06:00:55.445Z,993.80
2018-08-08T06:02:02.085Z,993.77
2018-08-08T06:03:08.711Z,993.75
2018-08-08T06:04:15.851Z,993.77
2018-08-08T06:05:21.968Z,993.74
2018-08-08T06:06:28.618Z,993.64
2018-08-08T06:07:35.244Z,993.61
2018-08-08T06:08:41.878Z,993.58
2018-08-08T06:09:48.993Z,993.54
2018-08-08T06:10:55.633Z,993.48
2018-08-08T06:12:01.787Z,993.45
2018-08-08T06:13:08.406Z,993.43
2018-08-08T06:14:15.065Z,993.36
2018-08-08T06:15:21.684Z,993.36
2018-08-08T06:16:28.346Z,993.26
2018-08-08T06:17:34.984Z,993.15
2018-08-08T06:18:41.618Z,993.05
2018-08-08T06:19:48.263Z,993.06
2018-08-08T06:20:54.896Z,993.15
2018-08-08T06:22:01.540Z,993.18
2018-08-08T06:23:08.707Z,993.22
2018-08-08T06:24:14.857Z,993.26
2018-08-08T06:25:21.524Z,993.29
2018-08-08T06:26:28.283Z,993.33
2018-08-08T06:27:34.855Z,993.39
2018-08-08T06:28:41.528Z,993.39
2018-08-08T06:29:48.290Z,993.40
2018-08-08T06:30:54.878Z,993.43
2018-08-08T06:32:01.576Z,993.46
2018-08-08T06:33:08.300Z,993.43
2018-08-08T06:34:14.963Z,993.48
2018-08-08T06:35:21.673Z,993.50
2018-08-08T06:36:28.382Z,993.53
2018-08-08T06:37:35.098Z,993.50
2018-08-08T06:38:41.798Z,993.49
2018-08-08T06:39:49.026Z,993.49
2018-08-08T06:40:55.228Z,993.46
2018-08-08T06:42:02.456Z,993.42
2018-08-08T06:43:08.657Z,993.35
2018-08-08T06:44:15.467Z,993.36
2018-08-08T06:45:22.596Z,993.28
2018-08-08T06:46:28.816Z,993.28
2018-08-08T06:47:35.535Z,993.19
2018-08-08T06:48:42.246Z,993.18
2018-08-08T06:49:48.956Z,993.19
2018-08-08T06:50:55.673Z,993.17
2018-08-08T06:52:02.386Z,993.24
2018-08-08T06:53:09.168Z,993.26
2018-08-08T06:54:15.810Z,993.24
2018-08-08T06:55:22.522Z,993.28
2018-08-08T06:56:29.235Z,993.27
2018-08-08T06:57:35.977Z,993.25
2018-08-08T06:58:42.677Z,993.25
2018-08-08T06:59:49.392Z,993.27
2018-08-08T07:00:56.100Z,993.28
2018-08-08T07:02:02.802Z,993.29
2018-08-08T07:03:09.540Z,993.25
2018-08-08T07:04:16.219Z,993.22
2018-08-08T07:05:23.256Z,993.19
2018-08-08T07:06:29.649Z,993.18
2018-08-08T07:07:36.874Z,993.15
2018-08-08T07:08:43.025Z,993.16
2018-08-08T07:09:49.732Z,993.13
2018-08-08T07:10:56.431Z,993.10
2018-08-08T07:12:03.119Z,993.12
2018-08-08T07:13:09.846Z,993.11
2018-08-08T07:14:17.556Z,993.08
2018-08-08T07:15:23.727Z,992.99
2018-08-08T07:16:29.932Z,992.87
2018-08-08T07:17:36.633Z,992.77
2018-08-08T07:18:43.306Z,992.73
2018-08-08T07:19:50.057Z,992.76
2018-08-08T07:20:56.724Z,992.81
2018-08-08T07:22:03.423Z,992.84
2018-08-08T07:23:10.137Z,992.92
2018-08-08T07:24:16.852Z,992.96
2018-08-08T07:25:23.622Z,992.94
2018-08-08T07:26:30.289Z,992.95
2018-08-08T07:27:37.020Z,992.99
2018-08-08T07:28:43.737Z,992.97
2018-08-08T07:29:50.464Z,992.96
2018-08-08T07:30:57.207Z,992.89
2018-08-08T07:32:03.930Z,992.85
2018-08-08T07:33:10.687Z,992.82
2018-08-08T07:34:17.412Z,992.79
2018-08-08T07:35:24.151Z,992.72
2018-08-08T07:36:30.890Z,992.79
2018-08-08T07:37:37.632Z,992.78
2018-08-08T07:38:44.879Z,992.76
2018-08-08T07:39:51.150Z,992.78
2018-08-08T07:40:57.887Z,992.77
2018-08-08T07:42:04.629Z,992.76
2018-08-08T07:43:11.391Z,992.71
2018-08-08T07:44:18.183Z,992.68
2018-08-08T07:45:24.882Z,992.65
2018-08-08T07:46:32.140Z,992.64
2018-08-08T07:47:38.415Z,992.64
2018-08-08T07:48:45.186Z,992.71
2018-08-08T07:49:51.932Z,992.76
2018-08-08T07:50:58.710Z,992.85
2018-08-08T07:52:05.490Z,992.87
2018-08-08T07:53:12.276Z,992.91
2018-08-08T07:54:19.054Z,992.94
2018-08-08T07:55:25.845Z,992.98
2018-08-08T07:56:33.103Z,992.98
2018-08-08T07:57:40.456Z,992.97
2018-08-08T07:58:46.273Z,992.98
2018-08-08T07:59:53.071Z,992.96
2018-08-08T08:00:59.885Z,992.96
2018-08-08T08:02:06.715Z,992.91
2018-08-08T08:03:13.577Z,992.96
2018-08-08T08:04:20.358Z,993.00
2018-08-08T08:05:27.196Z,993.02
2018-08-08T08:06:34.009Z,993.03
2018-08-08T08:07:40.853Z,993.10
2018-08-08T08:08:47.678Z,993.18
2018-08-08T08:09:54.506Z,993.21
2018-08-08T08:11:01.336Z,993.27
2018-08-08T08:12:08.283Z,993.36
2018-08-08T08:13:15.027Z,993.37
2018-08-08T08:14:21.843Z,993.37
2018-08-08T08:15:28.676Z,993.42
2018-08-08T08:16:35.514Z,993.47
2018-08-08T08:17:42.367Z,993.41
2018-08-08T08:18:49.217Z,993.43
2018-08-08T08:19:56.057Z,993.39
2018-08-08T08:21:02.894Z,993.48
2018-08-08T08:22:10.228Z,993.52
2018-08-08T08:23:16.659Z,993.57
2018-08-08T08:24:23.416Z,993.57
2018-08-08T08:25:30.746Z,993.60
2018-08-08T08:26:37.095Z,993.55
2018-08-08T08:27:43.942Z,993.57
2018-08-08T08:28:50.784Z,993.65
2018-08-08T08:29:57.729Z,993.61
2018-08-08T08:31:05.469Z,993.63
2018-08-08T08:32:11.311Z,993.62
2018-08-08T08:33:18.153Z,993.65
2018-08-08T08:34:25.511Z,993.69
2018-08-08T08:35:31.855Z,993.72
2018-08-08T08:36:38.697Z,993.70
2018-08-08T08:37:45.546Z,993.73
2018-08-08T08:38:52.399Z,993.75
2018-08-08T08:39:59.236Z,993.82
2018-08-08T08:41:06.097Z,993.84
2018-08-08T08:42:12.945Z,993.89
2018-08-08T08:43:20.308Z,993.90
2018-08-08T08:44:26.662Z,993.95
2018-08-08T08:45:33.616Z,993.94
2018-08-08T08:46:40.908Z,993.94
2018-08-08T08:47:47.734Z,993.95
2018-08-08T08:48:54.110Z,993.90
2018-08-08T08:50:01.037Z,993.97
2018-08-08T08:51:08.330Z,993.92
2018-08-08T08:52:14.673Z,993.98
2018-08-08T08:53:21.559Z,993.91
2018-08-08T08:54:28.407Z,994.01
2018-08-08T08:55:35.260Z,994.03
2018-08-08T08:56:43.123Z,994.04
2018-08-08T08:57:48.995Z,994.01
2018-08-08T08:58:55.862Z,994.00
2018-08-08T09:00:03.229Z,994.05
2018-08-08T09:01:09.612Z,994.03
2018-08-08T09:02:16.485Z,993.94
2018-08-08T09:03:23.382Z,993.93
2018-08-08T09:04:30.274Z,993.87
2018-08-08T09:05:37.148Z,993.98
2018-08-08T09:06:44.042Z,993.98
2018-08-08T09:07:50.931Z,993.98
2018-08-08T09:08:57.827Z,993.96
2018-08-08T09:10:04.719Z,994.05
2018-08-08T09:11:11.616Z,993.92
2018-08-08T09:12:18.561Z,994.01
2018-08-08T09:13:25.423Z,994.02
2018-08-08T09:14:32.331Z,993.99
2018-08-08T09:15:39.229Z,994.02
2018-08-08T09:16:46.277Z,994.09
2018-08-08T09:17:53.182Z,994.19
2018-08-08T09:19:00.507Z,994.17
2018-08-08T09:20:06.936Z,994.18
2018-08-08T09:21:13.862Z,994.23
2018-08-08T09:22:20.783Z,994.20
2018-08-08T09:23:27.714Z,994.24
2018-08-08T09:24:34.653Z,994.22
2018-08-08T09:25:42.054Z,994.18
2018-08-08T09:26:48.512Z,994.20
2018-08-08T09:27:55.416Z,994.25
2018-08-08T09:29:02.382Z,994.24
2018-08-08T09:30:09.264Z,994.20
2018-08-08T09:31:16.680Z,994.24
2018-08-08T09:32:23.108Z,994.28
2018-08-08T09:33:30.017Z,994.26
2018-08-08T09:34:36.950Z,994.25
2018-08-08T09:35:43.850Z,994.20
2018-08-08T09:36:51.325Z,994.20
2018-08-08T09:37:57.765Z,994.15
2018-08-08T09:39:04.614Z,994.19
2018-08-08T09:40:11.567Z,994.28
2018-08-08T09:41:18.455Z,994.29
2018-08-08T09:42:25.396Z,994.25
2018-08-08T09:43:32.338Z,994.16
2018-08-08T09:44:39.285Z,994.15
2018-08-08T09:45:46.246Z,994.22
2018-08-08T09:46:53.706Z,994.15
2018-08-08T09:48:00.286Z,994.19
2018-08-08T09:49:07.184Z,994.17
2018-08-08T09:50:14.273Z,994.21
2018-08-08T09:51:21.177Z,994.24
2018-08-08T09:52:28.278Z,994.21
2018-08-08T09:53:35.187Z,994.15
2018-08-08T09:54:42.211Z,994.19
2018-08-08T09:55:49.247Z,994.20
2018-08-08T09:56:56.270Z,994.23
2018-08-08T09:58:03.308Z,994.16
2018-08-08T09:59:10.350Z,994.18
2018-08-08T10:00:17.395Z,994.14
2018-08-08T10:01:24.442Z,994.14
2018-08-08T10:02:31.500Z,994.11
2018-08-08T10:03:38.572Z,994.12
2018-08-08T10:04:45.616Z,994.15
2018-08-08T10:05:52.659Z,994.19
2018-08-08T10:06:59.693Z,994.13
2018-08-08T10:08:06.736Z,994.23
2018-08-08T10:09:13.777Z,994.22
2018-08-08T10:10:20.800Z,994.17
2018-08-08T10:11:27.834Z,994.22
2018-08-08T10:12:34.871Z,994.22
2018-08-08T10:13:41.964Z,994.30
2018-08-08T10:14:48.940Z,994.21
2018-08-08T10:15:55.970Z,994.25
2018-08-08T10:17:03.015Z,994.18
2018-08-08T10:18:10.072Z,994.28
2018-08-08T10:19:17.134Z,994.18
2018-08-08T10:20:24.202Z,994.17
2018-08-08T10:21:31.270Z,994.17
2018-08-08T10:22:38.343Z,994.17
2018-08-08T10:23:45.422Z,994.17
2018-08-08T10:24:52.511Z,994.20
2018-08-08T10:25:59.596Z,994.13
2018-08-08T10:27:06.673Z,994.15
2018-08-08T10:28:14.212Z,994.17
2018-08-08T10:29:20.838Z,994.19
2018-08-08T10:30:27.919Z,994.22
2018-08-08T10:31:35.504Z,994.13
2018-08-08T10:32:42.093Z,994.13
2018-08-08T10:33:49.176Z,994.15
2018-08-08T10:34:56.308Z,994.11
2018-08-08T10:36:03.404Z,994.14
2018-08-08T10:37:10.519Z,994.15
2018-08-08T10:38:18.132Z,994.23
2018-08-08T10:39:24.740Z,994.23
2018-08-08T10:40:31.865Z,994.22
2018-08-08T10:41:39.021Z,994.34
2018-08-08T10:42:46.082Z,994.32
2018-08-08T10:43:53.218Z,994.26
2018-08-08T10:45:00.365Z,994.26
2018-08-08T10:46:07.478Z,994.25
2018-08-08T10:47:14.611Z,994.26
2018-08-08T10:48:21.760Z,994.26
2018-08-08T10:49:28.905Z,994.21
2018-08-08T10:50:36.057Z,994.22
2018-08-08T10:51:43.697Z,994.34
2018-08-08T10:52:50.330Z,994.34
2018-08-08T10:53:57.453Z,994.31
2018-08-08T10:55:04.556Z,994.35
2018-08-08T10:56:11.715Z,994.34
2018-08-08T10:57:18.752Z,994.34
2018-08-08T10:58:25.867Z,994.30
2018-08-08T10:59:33.016Z,994.36
2018-08-08T11:00:40.097Z,994.23
2018-08-08T11:01:47.216Z,994.21
2018-08-08T11:02:54.344Z,994.21
2018-08-08T11:04:01.465Z,994.20
2018-08-08T11:05:08.617Z,994.36
2018-08-08T11:06:15.767Z,994.16
2018-08-08T11:07:22.920Z,994.21
2018-08-08T11:08:30.103Z,994.26
2018-08-08T11:09:37.258Z,994.26
2018-08-08T11:10:44.418Z,994.21
2018-08-08T11:11:51.590Z,994.28
2018-08-08T11:12:58.705Z,994.17
2018-08-08T11:14:05.858Z,994.09
2018-08-08T11:15:13.020Z,994.16
2018-08-08T11:16:20.285Z,994.16
2018-08-08T11:17:27.364Z,994.18
2018-08-08T11:18:34.529Z,994.14
2018-08-08T11:19:41.721Z,994.15
2018-08-08T11:20:48.885Z,994.19
2018-08-08T11:21:56.074Z,994.20
2018-08-08T11:23:03.236Z,994.18
2018-08-08T11:24:11.386Z,994.17
2018-08-08T11:25:17.543Z,994.21
2018-08-08T11:26:24.700Z,994.13
2018-08-08T11:27:31.897Z,994.11
2018-08-08T11:28:39.082Z,994.09
2018-08-08T11:29:46.308Z,994.20
2018-08-08T11:30:53.494Z,994.20
2018-08-08T11:32:00.687Z,994.23
2018-08-08T11:33:07.865Z,994.17
2018-08-08T11:34:15.060Z,994.25
2018-08-08T11:35:22.361Z,994.26
2018-08-08T11:36:29.723Z,994.27
2018-08-08T11:37:37.110Z,994.26
2018-08-08T11:38:44.508Z,994.30
2018-08-08T11:39:51.776Z,994.29
2018-08-08T11:40:59.081Z,994.20
2018-08-08T11:42:06.402Z,994.30
2018-08-08T11:43:13.779Z,994.36
2018-08-08T11:44:21.159Z,994.34
2018-08-08T11:45:28.602Z,994.38
2018-08-08T11:46:36.099Z,994.37
2018-08-08T11:47:43.620Z,994.28
2018-08-08T11:48:51.197Z,994.30
2018-08-08T11:49:58.779Z,994.31
2018-08-08T11:51:06.409Z,994.34
2018-08-08T11:52:14.100Z,994.31
2018-08-08T11:53:21.673Z,994.36
2018-08-08T11:54:30.825Z,994.31
2018-08-08T11:55:37.027Z,994.32
2018-08-08T11:56:44.712Z,994.29
2018-08-08T11:57:52.431Z,994.27
2018-08-08T11:59:00.172Z,994.29
2018-08-08T12:00:07.879Z,994.27
2018-08-08T12:01:15.824Z,994.25
2018-08-08T12:02:23.385Z,994.22
2018-08-08T12:03:31.161Z,994.27
2018-08-08T12:04:38.969Z,994.18
2018-08-08T12:05:46.745Z,994.18
2018-08-08T12:06:54.550Z,994.27
2018-08-08T12:08:02.375Z,994.25
2018-08-08T12:09:10.216Z,994.19
2018-08-08T12:10:18.072Z,994.28
2018-08-08T12:11:25.927Z,994.19
2018-08-08T12:12:33.787Z,994.24
2018-08-08T12:13:41.673Z,994.20
2018-08-08T12:14:50.545Z,994.38
2018-08-08T12:15:57.433Z,994.32
2018-08-08T12:17:05.317Z,994.25
2018-08-08T12:18:13.203Z,994.33
2018-08-08T12:19:21.094Z,994.27
2018-08-08T12:20:28.969Z,994.22
2018-08-08T12:21:36.856Z,994.21
2018-08-08T12:22:44.719Z,994.25
2018-08-08T12:23:52.597Z,994.19
2018-08-08T12:25:00.471Z,994.16
2018-08-08T12:26:08.336Z,994.23
2018-08-08T12:27:16.705Z,994.25
2018-08-08T12:28:24.095Z,994.23
2018-08-08T12:29:31.978Z,994.16
2018-08-08T12:30:39.865Z,994.22
2018-08-08T12:31:47.741Z,994.23
2018-08-08T12:32:56.101Z,994.26
2018-08-08T12:34:03.492Z,994.20
2018-08-08T12:35:11.415Z,994.21
2018-08-08T12:36:19.246Z,994.18
2018-08-08T12:37:27.627Z,994.19
2018-08-08T12:38:35.046Z,994.17
2018-08-08T12:39:42.949Z,994.16
2018-08-08T12:40:50.873Z,994.13
2018-08-08T12:41:58.767Z,994.14
2018-08-08T12:43:06.686Z,994.18
2018-08-08T12:44:14.606Z,994.19
2018-08-08T12:45:22.513Z,994.20
2018-08-08T12:46:30.416Z,994.17
2018-08-08T12:47:38.308Z,994.30
2018-08-08T12:48:46.219Z,994.26
2018-08-08T12:49:54.136Z,994.20
2018-08-08T12:51:02.023Z,994.15
2018-08-08T12:52:09.921Z,994.19
2018-08-08T12:53:17.809Z,994.16
2018-08-08T12:54:26.037Z,994.06
2018-08-08T12:55:33.569Z,994.15
2018-08-08T12:56:41.427Z,994.10
2018-08-08T12:57:49.288Z,994.15
2018-08-08T12:58:57.156Z,994.11
2018-08-08T13:00:05.041Z,994.10
2018-08-08T13:01:12.915Z,994.18
2018-08-08T13:02:20.790Z,994.11
2018-08-08T13:03:28.676Z,994.18
2018-08-08T13:04:36.553Z,994.18
2018-08-08T13:05:44.421Z,994.17
2018-08-08T13:06:52.263Z,994.11
2018-08-08T13:08:00.091Z,994.14
2018-08-08T13:09:07.920Z,994.18
2018-08-08T13:10:15.764Z,994.26
2018-08-08T13:11:23.608Z,994.15
2018-08-08T13:12:31.457Z,994.15
2018-08-08T13:13:39.314Z,994.17
2018-08-08T13:14:47.281Z,994.10
2018-08-08T13:15:55.047Z,994.06
2018-08-08T13:17:02.858Z,994.11
2018-08-08T13:18:10.628Z,994.08
2018-08-08T13:19:18.394Z,994.10
2018-08-08T13:20:26.191Z,994.12
2018-08-08T13:21:33.949Z,994.10
2018-08-08T13:22:41.726Z,994.01
2018-08-08T13:23:49.543Z,994.03
2018-08-08T13:24:57.369Z,994.03
2018-08-08T13:26:05.077Z,994.11
2018-08-08T13:27:12.842Z,994.05
2018-08-08T13:28:20.651Z,994.03
2018-08-08T13:29:28.417Z,994.00
2018-08-08T13:30:36.218Z,993.97
2018-08-08T13:31:44.019Z,993.94
2018-08-08T13:32:51.813Z,993.93
2018-08-08T13:33:59.644Z,993.99
2018-08-08T13:35:07.413Z,993.92
2018-08-08T13:36:15.224Z,993.86
2018-08-08T13:37:23.021Z,993.95
2018-08-08T13:38:30.824Z,993.89
2018-08-08T13:39:38.668Z,993.94
2018-08-08T13:40:46.445Z,993.93
2018-08-08T13:41:54.227Z,993.93
2018-08-08T13:43:02.021Z,993.95
2018-08-08T13:44:09.809Z,993.95
2018-08-08T13:45:18.066Z,993.92
2018-08-08T13:46:25.845Z,993.83
2018-08-08T13:47:33.138Z,993.81
2018-08-08T13:48:40.888Z,993.73
2018-08-08T13:49:48.655Z,993.78
2018-08-08T13:50:56.447Z,993.83
2018-08-08T13:52:04.190Z,993.78
2018-08-08T13:53:11.972Z,993.77
2018-08-08T13:54:19.749Z,993.77